Map

Track Data

SID SEASON NUMBER BASIN SUBBASIN NAME ISO_TIME NATURE LAT LON WMO_WIND WMO_PRES WMO_AGENCY TRACK_TYPE DIST2LAND LANDFALL IFLAG USA_AGENCY USA_ATCF_ID USA_LAT USA_LON USA_RECORD USA_STATUS USA_WIND USA_PRES USA_SSHS USA_R34_NE USA_R34_SE USA_R34_SW USA_R34_NW USA_R50_NE USA_R50_SE USA_R50_SW USA_R50_NW USA_R64_NE USA_R64_SE USA_R64_SW USA_R64_NW USA_POCI USA_ROCI USA_RMW USA_EYE TOKYO_LAT TOKYO_LON TOKYO_GRADE TOKYO_WIND TOKYO_PRES TOKYO_R50_DIR TOKYO_R50_LONG TOKYO_R50_SHORT TOKYO_R30_DIR TOKYO_R30_LONG TOKYO_R30_SHORT TOKYO_LAND CMA_LAT CMA_LON CMA_CAT CMA_WIND CMA_PRES HKO_LAT HKO_LON HKO_CAT HKO_WIND HKO_PRES NEWDELHI_LAT NEWDELHI_LON NEWDELHI_GRADE NEWDELHI_WIND NEWDELHI_PRES NEWDELHI_CI NEWDELHI_DP NEWDELHI_POCI REUNION_LAT REUNION_LON REUNION_TYPE REUNION_WIND REUNION_PRES REUNION_TNUM REUNION_CI REUNION_RMW REUNION_R34_NE REUNION_R34_SE REUNION_R34_SW REUNION_R34_NW REUNION_R50_NE REUNION_R50_SE REUNION_R50_SW REUNION_R50_NW REUNION_R64_NE REUNION_R64_SE REUNION_R64_SW REUNION_R64_NW BOM_LAT BOM_LON BOM_TYPE BOM_WIND BOM_PRES BOM_TNUM BOM_CI BOM_RMW BOM_R34_NE BOM_R34_SE BOM_R34_SW BOM_R34_NW BOM_R50_NE BOM_R50_SE BOM_R50_SW BOM_R50_NW BOM_R64_NE BOM_R64_SE BOM_R64_SW BOM_R64_NW BOM_ROCI BOM_POCI BOM_EYE BOM_POS_METHOD BOM_PRES_METHOD NADI_LAT NADI_LON NADI_CAT NADI_WIND NADI_PRES WELLINGTON_LAT WELLINGTON_LON WELLINGTON_WIND WELLINGTON_PRES DS824_LAT DS824_LON DS824_STAGE DS824_WIND DS824_PRES TD9636_LAT TD9636_LON TD9636_STAGE TD9636_WIND TD9636_PRES TD9635_LAT TD9635_LON TD9635_WIND TD9635_PRES TD9635_ROCI NEUMANN_LAT NEUMANN_LON NEUMANN_CLASS NEUMANN_WIND NEUMANN_PRES MLC_LAT MLC_LON MLC_CLASS MLC_WIND MLC_PRES USA_GUST BOM_GUST BOM_GUST_PER REUNION_GUST REUNION_GUST_PER USA_SEAHGT USA_SEARAD_NE USA_SEARAD_SE USA_SEARAD_SW USA_SEARAD_NW STORM_SPEED STORM_DIR
1863279N21300 1863 26 NA NA NOT_NAMED 1863-10-05 12:00:00 TS 21.0000 -59.8000 main 673 673 _____________O -1 21.0000 -59.8000 TD 30 3 355
1863279N21300 1863 26 NA NA NOT_NAMED 1863-10-05 15:00:00 TS 21.1625 -59.8000 main 682 682 _____________P -1 21.1625 -59.8000 TD 30 3 0
1863279N21300 1863 26 NA NA NOT_NAMED 1863-10-05 18:00:00 TS 21.3000 -59.8000 main 687 687 _____________O -1 21.3000 -59.8000 TD 30 2 0
1863279N21300 1863 26 NA NA NOT_NAMED 1863-10-05 21:00:00 TS 21.4000 -59.8000 main 692 692 _____________P -1 21.4000 -59.8000 TD 30 2 8
1863279N21300 1863 26 NA NA NOT_NAMED 1863-10-06 00:00:00 TS 21.5000 -59.8000 main 698 698 _____________O -1 21.5000 -59.8000 TD 30 3 2
1863279N21300 1863 26 NA NA NOT_NAMED 1863-10-06 03:00:00 TS 21.6500 -59.8000 main 709 709 _____________P -1 21.6500 -59.8000 TD 30 3 0
1863279N21300 1863 26 NA NA NOT_NAMED 1863-10-06 06:00:00 TS 21.8000 -59.8000 main 714 714 _____________O -1 21.8000 -59.8000 TD 30 3 358
1863279N21300 1863 26 NA NA NOT_NAMED 1863-10-06 09:00:00 TS 21.9000 -59.8075 main 720 720 _____________P -1 21.9000 -59.8075 TD 32 2 8
1863279N21300 1863 26 NA NA NOT_NAMED 1863-10-06 12:00:00 TS 22.0000 -59.8000 main 726 726 _____________O -1 22.0000 -59.8000 TS 35 3 13
1863279N21300 1863 26 NA NA NOT_NAMED 1863-10-06 15:00:00 TS 22.1500 -59.7500 main 739 739 _____________P -1 22.1500 -59.7500 TS 35 3 16
1863279N21300 1863 26 NA NA NOT_NAMED 1863-10-06 18:00:00 TS 22.3000 -59.7000 main 753 753 _____________O -1 22.3000 -59.7000 TS 35 3 9
1863279N21300 1863 26 NA NA NOT_NAMED 1863-10-06 21:00:00 TS 22.4000 -59.7000 main 760 760 _____________P -1 22.4000 -59.7000 TS 35 2 8
1863279N21300 1863 26 NA NA NOT_NAMED 1863-10-07 00:00:00 TS 22.5000 -59.7000 main 766 766 _____________O -1 22.5000 -59.7000 TS 35 3 9
1863279N21300 1863 26 NA NA NOT_NAMED 1863-10-07 03:00:00 TS 22.6500 -59.6500 main 779 779 _____________P -1 22.6500 -59.6500 TS 35 3 16
1863279N21300 1863 26 NA NA NOT_NAMED 1863-10-07 06:00:00 TS 22.8000 -59.6000 main 794 794 _____________O -1 22.8000 -59.6000 TS 35 2 11
1863279N21300 1863 26 NA NA NOT_NAMED 1863-10-07 09:00:00 TS 22.8925 -59.6149 main 801 801 _____________P -1 22.8925 -59.6149 TS 35 2 8
1863279N21300 1863 26 NA NA NOT_NAMED 1863-10-07 12:00:00 TS 23.0000 -59.6000 main 808 808 _____________O -1 23.0000 -59.6000 TS 35 3 24
1863279N21300 1863 26 NA NA NOT_NAMED 1863-10-07 15:00:00 TS 23.1925 -59.4726 main 830 830 _____________P -1 23.1925 -59.4726 TS 35 5 35
1863279N21300 1863 26 NA NA NOT_NAMED 1863-10-07 18:00:00 TS 23.4000 -59.3000 main 860 860 _____________O -1 23.4000 -59.3000 TS 35 5 39
1863279N21300 1863 26 NA NA NOT_NAMED 1863-10-07 21:00:00 TS 23.5575 -59.1499 main 890 890 _____________P -1 23.5575 -59.1499 TS 35 4 42
1863279N21300 1863 26 NA NA NOT_NAMED 1863-10-08 00:00:00 TS 23.7000 -59.0000 main 905 905 _____________O -1 23.7000 -59.0000 TS 35 4 44
1863279N21300 1863 26 NA NA NOT_NAMED 1863-10-08 03:00:00 TS 23.8500 -58.8425 main 935 935 _____________P -1 23.8500 -58.8425 TS 35 4 42
1863279N21300 1863 26 NA NA NOT_NAMED 1863-10-08 06:00:00 TS 24.0000 -58.7000 main 950 950 _____________O -1 24.0000 -58.7000 TS 35 4 37
1863279N21300 1863 26 NA NA NOT_NAMED 1863-10-08 09:00:00 TS 24.1274 -58.6073 main 965 965 _____________P -1 24.1274 -58.6073 TS 35 4 31
1863279N21300 1863 26 NA NA NOT_NAMED 1863-10-08 12:00:00 TS 24.3000 -58.5000 main 987 987 _____________O -1 24.3000 -58.5000 TS 35 5 30
1863279N21300 1863 26 NA NA NOT_NAMED 1863-10-08 15:00:00 TS 24.5850 -58.3151 main 1024 1024 _____________P -1 24.5850 -58.3151 TS 35 7 31
1863279N21300 1863 26 NA NA NOT_NAMED 1863-10-08 18:00:00 TS 24.9000 -58.1000 main 1061 1061 _____________O -1 24.9000 -58.1000 TS 35 7 33
1863279N21300 1863 26 NA NA NOT_NAMED 1863-10-08 21:00:00 TS 25.1499 -57.9073 main 1091 1091 _____________P -1 25.1499 -57.9073 TS 35 6 36
1863279N21300 1863 26 NA NA NOT_NAMED 1863-10-09 00:00:00 TS 25.4000 -57.7000 main 1129 1129 _____________O -1 25.4000 -57.7000 TS 35 7 37
1863279N21300 1863 26 NA NA NOT_NAMED 1863-10-09 03:00:00 TS 25.7000 -57.4501 main 1166 1166 _____________P -1 25.7000 -57.4501 TS 32 8 37
1863279N21300 1863 26 NA NA NOT_NAMED 1863-10-09 06:00:00 TS 26.0000 -57.2000 main 1211 1211 _____________O -1 26.0000 -57.2000 TD 30 7 36
1863279N21300 1863 26 NA NA NOT_NAMED 1863-10-09 09:00:00 TS 26.2625 -56.9875 main 1248 1248 _____________P -1 26.2625 -56.9875 TD 27 6 36
1863279N21300 1863 26 NA NA NOT_NAMED 1863-10-09 12:00:00 ET 26.5000 -56.8000 main 1278 _____________O -1 26.5000 -56.8000 EX 25 6 35

About IBTrACS Database

This database is a web-friendly format of International Best Track Archive for Climate Stewardship (IBTrACS), a global best track data archive curated by NOAA dating back to 1842.

Updated: 2021-12-06